createdAt,value
2017-10-08T00:01:58.733Z,1.85
2017-10-08T00:04:26.598Z,1.45
2017-10-08T00:06:54.465Z,1.85
2017-10-08T00:09:22.333Z,1.67
2017-10-08T00:11:50.199Z,1.40
2017-10-08T00:14:18.066Z,1.67
2017-10-08T00:16:45.934Z,1.30
2017-10-08T00:19:13.801Z,1.20
2017-10-08T00:21:41.669Z,1.90
2017-10-08T00:24:09.536Z,1.60
2017-10-08T00:26:37.404Z,1.40
2017-10-08T00:29:05.271Z,1.50
2017-10-08T00:31:33.139Z,1.73
2017-10-08T00:34:01.005Z,1.70
2017-10-08T00:36:28.874Z,1.40
2017-10-08T00:38:56.842Z,1.35
2017-10-08T00:41:24.842Z,1.52
2017-10-08T00:43:52.680Z,1.33
2017-10-08T00:46:20.547Z,1.50
2017-10-08T00:48:48.414Z,1.17
2017-10-08T00:51:16.281Z,1.40
2017-10-08T00:53:44.149Z,1.10
2017-10-08T00:56:11.945Z,1.48
2017-10-08T00:58:40.599Z,1.20
2017-10-08T01:01:08.467Z,1.45
2017-10-08T01:03:36.335Z,1.30
2017-10-08T01:06:04.202Z,1.10
2017-10-08T01:08:32.074Z,1.30
2017-10-08T01:10:59.937Z,1.27
2017-10-08T01:13:27.906Z,1.45
2017-10-08T01:15:55.780Z,1.77
2017-10-08T01:18:23.644Z,1.27
2017-10-08T01:20:53.251Z,1.40
2017-10-08T01:23:21.118Z,1.30
2017-10-08T01:25:48.987Z,2.03
2017-10-08T01:28:16.855Z,1.20
2017-10-08T01:30:44.720Z,1.25
2017-10-08T01:33:12.588Z,1.20
2017-10-08T01:35:40.453Z,1.30
2017-10-08T01:38:08.356Z,1.40
2017-10-08T01:40:37.007Z,1.37
2017-10-08T01:43:04.874Z,1.17
2017-10-08T01:45:32.741Z,1.17
2017-10-08T01:48:00.609Z,1.40
2017-10-08T01:50:28.476Z,1.20
2017-10-08T01:52:56.343Z,1.10
2017-10-08T01:55:24.210Z,1.20
2017-10-08T01:57:52.078Z,1.23
2017-10-08T02:00:19.946Z,1.37
2017-10-08T02:02:47.813Z,1.05
2017-10-08T02:05:15.680Z,1.45
2017-10-08T02:07:43.548Z,1.40
2017-10-08T02:10:11.344Z,1.30
2017-10-08T02:12:39.179Z,1.30
2017-10-08T02:15:07.047Z,1.30
2017-10-08T02:17:34.914Z,1.58
2017-10-08T02:20:02.786Z,1.30
2017-10-08T02:22:30.649Z,1.30
2017-10-08T02:24:58.516Z,1.20
2017-10-08T02:27:26.384Z,1.00
2017-10-08T02:29:54.250Z,0.90
2017-10-08T02:32:22.117Z,1.40
2017-10-08T02:34:49.986Z,1.20
2017-10-08T02:37:17.854Z,1.10
2017-10-08T02:39:45.719Z,1.30
2017-10-08T02:42:13.587Z,1.27
2017-10-08T02:44:41.455Z,1.10
2017-10-08T02:47:09.321Z,1.20
2017-10-08T02:49:37.190Z,1.23
2017-10-08T02:52:05.056Z,1.20
2017-10-08T02:54:32.923Z,1.52
2017-10-08T02:57:00.790Z,1.45
2017-10-08T02:59:28.659Z,1.12
2017-10-08T03:01:56.525Z,1.60
2017-10-08T03:04:24.318Z,1.45
2017-10-08T03:06:52.158Z,1.30
2017-10-08T03:09:20.026Z,1.30
2017-10-08T03:11:47.891Z,1.08
2017-10-08T03:14:15.760Z,1.15
2017-10-08T03:16:43.628Z,1.00
2017-10-08T03:19:11.494Z,1.40
2017-10-08T03:21:39.362Z,1.00
2017-10-08T03:24:07.229Z,1.08
2017-10-08T03:26:35.097Z,1.50
2017-10-08T03:29:02.964Z,1.37
2017-10-08T03:31:30.831Z,1.40
2017-10-08T03:33:58.697Z,1.30
2017-10-08T03:36:26.566Z,1.00
2017-10-08T03:38:54.433Z,1.20
2017-10-08T03:41:22.300Z,1.20
2017-10-08T03:43:50.168Z,1.45
2017-10-08T03:46:18.036Z,1.30
2017-10-08T03:48:45.906Z,1.20
2017-10-08T03:51:13.769Z,1.30
2017-10-08T03:53:41.636Z,1.00
2017-10-08T03:56:09.504Z,1.30
2017-10-08T03:58:37.371Z,1.12
2017-10-08T04:01:05.238Z,1.00
2017-10-08T04:03:33.105Z,1.35
2017-10-08T04:06:00.972Z,1.40
2017-10-08T04:08:28.840Z,1.10
2017-10-08T04:10:56.709Z,1.20
2017-10-08T04:13:24.577Z,1.10
2017-10-08T04:15:52.442Z,1.20
2017-10-08T04:18:20.197Z,1.20
2017-10-08T04:20:48.074Z,1.40
2017-10-08T04:23:15.941Z,1.12
2017-10-08T04:25:43.813Z,1.40
2017-10-08T04:28:11.680Z,1.30
2017-10-08T04:30:39.549Z,1.40
2017-10-08T04:33:07.416Z,1.20
2017-10-08T04:35:35.283Z,1.20
2017-10-08T04:38:03.079Z,1.00
2017-10-08T04:40:31.707Z,1.40
2017-10-08T04:42:59.597Z,1.10
2017-10-08T04:45:27.465Z,1.23
2017-10-08T04:47:55.344Z,1.00
2017-10-08T04:50:23.201Z,1.12
2017-10-08T04:52:51.066Z,1.30
2017-10-08T04:55:18.934Z,1.37
2017-10-08T04:57:46.801Z,1.30
2017-10-08T05:00:14.672Z,1.30
2017-10-08T05:02:42.536Z,1.42
2017-10-08T05:05:10.412Z,1.58
2017-10-08T05:07:38.271Z,1.20
2017-10-08T05:10:06.139Z,1.20
2017-10-08T05:12:34.005Z,1.20
2017-10-08T05:15:01.874Z,1.10
2017-10-08T05:17:29.740Z,1.40
2017-10-08T05:19:57.608Z,1.10
2017-10-08T05:22:25.474Z,1.00
2017-10-08T05:24:53.342Z,1.15
2017-10-08T05:27:21.210Z,1.12
2017-10-08T05:29:57.477Z,1.20
2017-10-08T05:32:25.341Z,1.20
2017-10-08T05:34:53.207Z,1.20
2017-10-08T05:37:21.075Z,1.30
2017-10-08T05:39:48.942Z,1.27
2017-10-08T05:42:16.810Z,1.35
2017-10-08T05:44:44.680Z,1.20
2017-10-08T05:47:12.545Z,1.50
2017-10-08T05:49:40.514Z,1.45
2017-10-08T05:52:08.380Z,1.40
2017-10-08T05:54:36.249Z,1.17
2017-10-08T05:57:04.116Z,1.20
2017-10-08T05:59:31.982Z,1.30
2017-10-08T06:01:59.850Z,1.50
2017-10-08T06:04:27.922Z,1.27
2017-10-08T06:06:55.790Z,1.20
2017-10-08T06:09:23.658Z,1.35
2017-10-08T06:11:51.524Z,1.20
2017-10-08T06:14:19.397Z,1.75
2017-10-08T06:16:47.157Z,1.73
2017-10-08T06:19:15.025Z,1.37
2017-10-08T06:21:42.891Z,1.12
2017-10-08T06:24:10.759Z,1.80
2017-10-08T06:26:38.626Z,2.10
2017-10-08T06:29:06.494Z,1.10
2017-10-08T06:31:34.361Z,1.42
2017-10-08T06:34:02.228Z,1.30
2017-10-08T06:36:30.094Z,1.30
2017-10-08T06:38:57.962Z,1.70
2017-10-08T06:41:25.936Z,1.50
2017-10-08T06:43:53.800Z,1.45
2017-10-08T06:46:21.769Z,1.35
2017-10-08T06:48:49.636Z,1.92
2017-10-08T06:51:17.504Z,1.80
2017-10-08T06:53:45.498Z,1.30
2017-10-08T06:56:13.750Z,1.83
2017-10-08T06:58:42.266Z,1.40
2017-10-08T07:01:10.918Z,1.52
2017-10-08T07:03:38.787Z,1.27
2017-10-08T07:06:06.653Z,1.20
2017-10-08T07:08:34.521Z,1.60
2017-10-08T07:11:02.491Z,1.50
2017-10-08T07:13:30.358Z,1.17
2017-10-08T07:15:58.226Z,1.30
2017-10-08T07:18:26.093Z,2.10
2017-10-08T07:20:53.960Z,1.70
2017-10-08T07:23:21.934Z,1.40
2017-10-08T07:25:49.803Z,1.30
2017-10-08T07:28:17.668Z,1.52
2017-10-08T07:30:45.532Z,1.55
2017-10-08T07:33:13.403Z,1.60
2017-10-08T07:35:41.273Z,1.83
2017-10-08T07:38:09.136Z,1.37
2017-10-08T07:40:37.106Z,1.35
2017-10-08T07:43:04.971Z,1.95
2017-10-08T07:45:32.837Z,1.35
2017-10-08T07:48:00.706Z,1.45
2017-10-08T07:50:28.572Z,1.40
2017-10-08T07:52:56.441Z,1.10
2017-10-08T07:55:24.309Z,1.30
2017-10-08T07:57:52.277Z,1.40
2017-10-08T08:00:20.144Z,1.40
2017-10-08T08:02:48.011Z,1.45
2017-10-08T08:05:15.882Z,1.33
2017-10-08T08:07:43.746Z,1.30
2017-10-08T08:10:11.614Z,1.40
2017-10-08T08:12:39.483Z,1.10
2017-10-08T08:15:07.348Z,1.50
2017-10-08T08:17:35.215Z,1.40
2017-10-08T08:20:03.086Z,1.30
2017-10-08T08:22:30.951Z,1.77
2017-10-08T08:24:58.820Z,1.65
2017-10-08T08:27:26.685Z,1.65
2017-10-08T08:29:54.552Z,1.60
2017-10-08T08:32:22.420Z,1.30
2017-10-08T08:34:50.289Z,1.50
2017-10-08T08:37:18.154Z,1.55
2017-10-08T08:39:46.021Z,1.30
2017-10-08T08:42:13.889Z,1.55
2017-10-08T08:44:41.859Z,1.60
2017-10-08T08:47:09.726Z,1.35
2017-10-08T08:49:37.797Z,1.52
2017-10-08T08:52:05.665Z,1.50
2017-10-08T08:54:33.534Z,1.70
2017-10-08T08:57:01.400Z,1.60
2017-10-08T08:59:29.369Z,1.60
2017-10-08T09:01:57.339Z,1.52
2017-10-08T09:04:25.205Z,1.85
2017-10-08T09:06:53.104Z,1.55
2017-10-08T09:09:20.940Z,2.12
2017-10-08T09:11:48.808Z,1.50
2017-10-08T09:14:16.676Z,1.92
2017-10-08T09:16:44.542Z,1.50
2017-10-08T09:19:12.410Z,1.40
2017-10-08T09:21:40.276Z,1.52
2017-10-08T09:24:08.145Z,1.65
2017-10-08T09:26:36.011Z,1.95
2017-10-08T09:29:03.879Z,1.80
2017-10-08T09:31:31.746Z,2.25
2017-10-08T09:33:59.615Z,1.70
2017-10-08T09:36:27.482Z,1.48
2017-10-08T09:38:55.370Z,1.55
2017-10-08T09:41:23.217Z,1.60
2017-10-08T09:43:51.083Z,1.50
2017-10-08T09:46:18.951Z,1.50
2017-10-08T09:48:46.817Z,1.70
2017-10-08T09:51:14.685Z,1.65
2017-10-08T09:53:42.553Z,1.40
2017-10-08T09:56:10.420Z,1.50
2017-10-08T09:58:38.286Z,1.60
2017-10-08T10:01:06.156Z,1.90
2017-10-08T10:03:34.023Z,1.60
2017-10-08T10:06:05.983Z,1.42
2017-10-08T10:08:33.954Z,1.40
2017-10-08T10:11:01.822Z,1.65
2017-10-08T10:13:29.691Z,1.62
2017-10-08T10:15:58.479Z,1.40
2017-10-08T10:18:27.902Z,1.40
2017-10-08T10:20:56.571Z,1.75
2017-10-08T10:23:24.435Z,1.40
2017-10-08T10:25:52.303Z,1.40
2017-10-08T10:28:20.175Z,1.40
2017-10-08T10:30:48.625Z,1.50
2017-10-08T10:33:17.448Z,1.50
2017-10-08T10:35:46.666Z,1.20
2017-10-08T10:38:14.818Z,1.20
2017-10-08T10:40:42.687Z,1.50
2017-10-08T10:43:10.551Z,1.60
2017-10-08T10:45:38.653Z,1.50
2017-10-08T10:48:07.308Z,1.40
2017-10-08T10:50:35.173Z,1.50
2017-10-08T10:53:05.562Z,1.62
2017-10-08T10:55:36.027Z,1.42
2017-10-08T10:58:05.630Z,1.30
2017-10-08T11:00:33.608Z,1.60
2017-10-08T11:03:01.474Z,1.60
2017-10-08T11:05:29.341Z,1.95
2017-10-08T11:07:57.208Z,2.95
2017-10-08T11:10:27.614Z,1.92
2017-10-08T11:12:57.668Z,2.22
2017-10-08T11:15:27.745Z,2.12
2017-10-08T11:17:55.642Z,2.10
2017-10-08T11:20:23.509Z,2.10
2017-10-08T11:22:51.376Z,1.83
2017-10-08T11:25:19.245Z,2.00
2017-10-08T11:27:47.214Z,2.35
2017-10-08T11:30:15.080Z,2.10
2017-10-08T11:32:42.947Z,2.30
2017-10-08T11:35:10.815Z,2.37
2017-10-08T11:37:38.719Z,2.20
2017-10-08T11:40:07.472Z,1.90
2017-10-08T11:42:35.339Z,2.40
2017-10-08T11:45:03.206Z,2.30
2017-10-08T11:47:31.072Z,1.80
2017-10-08T11:49:58.949Z,2.17
2017-10-08T11:52:28.783Z,2.10
2017-10-08T11:54:59.701Z,2.60
2017-10-08T11:57:29.790Z,2.40
2017-10-08T11:59:57.680Z,2.80
2017-10-08T12:02:25.550Z,2.30
2017-10-08T12:04:53.416Z,2.70
2017-10-08T12:07:21.282Z,2.95
2017-10-08T12:09:49.150Z,2.47
2017-10-08T12:12:16.945Z,2.60
2017-10-08T12:14:44.782Z,2.78
2017-10-08T12:17:12.649Z,2.33
2017-10-08T12:19:40.516Z,2.65
2017-10-08T12:22:08.577Z,2.42
2017-10-08T12:24:37.788Z,2.40
2017-10-08T12:27:05.859Z,2.72
2017-10-08T12:29:33.733Z,1.60
2017-10-08T12:32:01.594Z,2.10
2017-10-08T12:34:29.461Z,2.45
2017-10-08T12:36:57.328Z,1.90
2017-10-08T12:39:25.196Z,2.22
2017-10-08T12:41:53.062Z,2.17
2017-10-08T12:44:20.930Z,1.92
2017-10-08T12:46:48.798Z,2.47
2017-10-08T12:49:16.664Z,2.10
2017-10-08T12:51:44.532Z,2.15
2017-10-08T12:54:12.400Z,2.22
2017-10-08T12:56:40.266Z,1.90
2017-10-08T12:59:08.236Z,1.80
2017-10-08T13:01:36.034Z,1.95
2017-10-08T13:04:03.972Z,1.95
2017-10-08T13:06:31.838Z,1.83
2017-10-08T13:08:59.706Z,1.80
2017-10-08T13:11:27.574Z,2.20
2017-10-08T13:13:55.440Z,2.05
2017-10-08T13:16:23.308Z,2.35
2017-10-08T13:18:51.176Z,2.72
2017-10-08T13:21:19.036Z,2.03
2017-10-08T13:23:46.910Z,2.33
2017-10-08T13:26:14.777Z,2.12
2017-10-08T13:28:42.542Z,2.50
2017-10-08T13:31:10.410Z,2.05
2017-10-08T13:33:38.277Z,1.83
2017-10-08T13:36:06.146Z,2.30
2017-10-08T13:38:34.013Z,2.08
2017-10-08T13:41:01.883Z,2.15
2017-10-08T13:43:29.749Z,2.08
2017-10-08T13:45:57.533Z,2.20
2017-10-08T13:48:25.246Z,2.20
2017-10-08T13:50:53.046Z,1.92
2017-10-08T13:53:20.823Z,1.95
2017-10-08T13:55:48.779Z,2.00
2017-10-08T13:58:16.485Z,1.80
2017-10-08T14:00:44.958Z,1.90
2017-10-08T14:03:13.608Z,2.00
2017-10-08T14:05:41.333Z,2.10
2017-10-08T14:08:09.135Z,2.15
2017-10-08T14:10:37.001Z,2.20
2017-10-08T14:13:04.870Z,2.20
2017-10-08T14:15:32.737Z,2.00
2017-10-08T14:18:00.604Z,2.00
2017-10-08T14:20:28.474Z,1.98
2017-10-08T14:22:56.339Z,2.47
2017-10-08T14:25:24.206Z,1.98
2017-10-08T14:27:52.075Z,2.37
2017-10-08T14:30:19.941Z,2.00
2017-10-08T14:32:47.809Z,2.00
2017-10-08T14:35:15.676Z,2.22
2017-10-08T14:37:43.544Z,2.05
2017-10-08T14:40:11.410Z,2.92
2017-10-08T14:42:39.277Z,2.10
2017-10-08T14:45:07.145Z,2.03
2017-10-08T14:47:35.012Z,2.25
2017-10-08T14:50:02.879Z,1.65
2017-10-08T14:52:30.747Z,1.80
2017-10-08T14:54:58.614Z,2.00
2017-10-08T14:57:26.481Z,1.77
2017-10-08T14:59:54.350Z,2.03
2017-10-08T15:02:22.217Z,1.80
2017-10-08T15:04:50.084Z,2.33
2017-10-08T15:07:17.950Z,2.08
2017-10-08T15:09:45.715Z,2.35
2017-10-08T15:12:13.481Z,2.35
2017-10-08T15:14:41.347Z,2.42
2017-10-08T15:17:09.146Z,2.28
2017-10-08T15:19:37.697Z,2.10
2017-10-08T15:22:05.564Z,2.53
2017-10-08T15:24:33.431Z,2.00
2017-10-08T15:27:01.299Z,2.42
2017-10-08T15:29:29.271Z,2.72
2017-10-08T15:31:57.239Z,2.30
2017-10-08T15:34:25.106Z,2.22
2017-10-08T15:36:52.973Z,2.60
2017-10-08T15:39:20.840Z,2.40
2017-10-08T15:41:48.707Z,2.72
2017-10-08T15:44:16.592Z,2.40
2017-10-08T15:46:44.441Z,3.05
2017-10-08T15:49:12.310Z,3.00
2017-10-08T15:51:40.177Z,3.10
2017-10-08T15:54:08.038Z,3.10
2017-10-08T15:56:35.950Z,3.10
2017-10-08T15:59:04.634Z,2.70
2017-10-08T16:01:33.290Z,3.10
2017-10-08T16:04:01.152Z,3.12
2017-10-08T16:06:29.018Z,4.00
2017-10-08T16:08:56.886Z,3.47
2017-10-08T16:11:25.405Z,3.30
2017-10-08T16:13:54.361Z,3.40
2017-10-08T16:16:22.332Z,3.37
2017-10-08T16:18:50.198Z,3.70
2017-10-08T16:21:18.067Z,3.78
2017-10-08T16:23:45.935Z,4.28
2017-10-08T16:26:13.800Z,4.30
2017-10-08T16:28:41.668Z,3.78
2017-10-08T16:31:09.537Z,4.50
2017-10-08T16:33:37.403Z,4.50
2017-10-08T16:36:05.273Z,4.05
2017-10-08T16:38:33.137Z,5.03
2017-10-08T16:41:01.013Z,4.60
2017-10-08T16:43:28.873Z,4.18
2017-10-08T16:45:56.877Z,4.22
2017-10-08T16:48:25.531Z,4.47
2017-10-08T16:50:53.396Z,4.35
2017-10-08T16:53:21.366Z,4.62
2017-10-08T16:55:49.335Z,4.60
2017-10-08T16:58:17.208Z,4.12
2017-10-08T17:00:45.073Z,4.45
2017-10-08T17:03:12.944Z,4.12
2017-10-08T17:05:40.839Z,4.25
2017-10-08T17:08:09.496Z,3.85
2017-10-08T17:10:37.465Z,4.05
2017-10-08T17:13:05.332Z,3.28
2017-10-08T17:15:33.197Z,3.42
2017-10-08T17:18:01.199Z,3.50
2017-10-08T17:20:29.953Z,3.75
2017-10-08T17:22:58.230Z,3.58
2017-10-08T17:25:26.097Z,4.15
2017-10-08T17:27:53.968Z,3.40
2017-10-08T17:30:21.832Z,3.45
2017-10-08T17:32:49.700Z,4.12
2017-10-08T17:35:17.567Z,3.03
2017-10-08T17:37:45.435Z,3.78
2017-10-08T17:40:13.302Z,3.95
2017-10-08T17:42:41.170Z,3.40
2017-10-08T17:45:09.038Z,3.47
2017-10-08T17:47:37.594Z,4.18
2017-10-08T17:50:05.385Z,3.65
2017-10-08T17:52:33.253Z,3.70
2017-10-08T17:55:01.120Z,4.25
2017-10-08T17:57:28.988Z,3.80
2017-10-08T17:59:56.960Z,3.03
2017-10-08T18:02:24.825Z,3.40
2017-10-08T18:04:52.795Z,3.97
2017-10-08T18:07:20.794Z,3.25
2017-10-08T18:09:49.442Z,3.45
2017-10-08T18:12:17.351Z,4.37
2017-10-08T18:14:46.004Z,4.50
2017-10-08T18:17:13.871Z,3.65
2017-10-08T18:19:41.665Z,3.05
2017-10-08T18:22:09.712Z,3.30
2017-10-08T18:24:37.576Z,3.50
2017-10-08T18:27:05.545Z,3.80
2017-10-08T18:29:33.412Z,3.50
2017-10-08T18:32:01.281Z,3.40
2017-10-08T18:34:29.147Z,3.60
2017-10-08T18:36:57.015Z,3.75
2017-10-08T18:39:24.882Z,3.50
2017-10-08T18:41:52.954Z,3.40
2017-10-08T18:44:20.821Z,3.85
2017-10-08T18:46:48.831Z,2.87
2017-10-08T18:49:17.478Z,3.05
2017-10-08T18:51:45.272Z,3.20
2017-10-08T18:54:13.109Z,3.37
2017-10-08T18:56:40.993Z,3.87
2017-10-08T18:59:08.845Z,3.97
2017-10-08T19:01:36.711Z,3.65
2017-10-08T19:04:04.580Z,4.35
2017-10-08T19:06:32.344Z,4.18
2017-10-08T19:09:00.212Z,4.00
2017-10-08T19:11:28.078Z,4.55
2017-10-08T19:13:55.947Z,4.20
2017-10-08T19:16:23.814Z,4.70
2017-10-08T19:18:51.784Z,4.03
2017-10-08T19:21:19.650Z,4.37
2017-10-08T19:23:47.517Z,3.60
2017-10-08T19:26:15.387Z,3.33
2017-10-08T19:28:43.252Z,3.58
2017-10-08T19:31:11.119Z,3.15
2017-10-08T19:33:38.914Z,3.30
2017-10-08T19:36:06.751Z,3.65
2017-10-08T19:38:34.619Z,3.08
2017-10-08T19:41:02.794Z,3.17
2017-10-08T19:43:31.378Z,3.42
2017-10-08T19:45:59.246Z,3.35
2017-10-08T19:48:27.112Z,3.20
2017-10-08T19:50:54.980Z,3.22
2017-10-08T19:53:22.847Z,3.92
2017-10-08T19:55:50.714Z,3.70
2017-10-08T19:58:18.582Z,3.70
2017-10-08T20:00:46.450Z,4.25
2017-10-08T20:03:14.317Z,4.18
2017-10-08T20:05:42.183Z,3.30
2017-10-08T20:08:10.051Z,3.58
2017-10-08T20:10:37.927Z,3.53
2017-10-08T20:13:05.790Z,3.10
2017-10-08T20:15:33.657Z,3.58
2017-10-08T20:18:01.524Z,3.53
2017-10-08T20:20:29.497Z,3.65
2017-10-08T20:22:57.363Z,4.18
2017-10-08T20:25:25.233Z,4.20
2017-10-08T20:27:53.093Z,3.50
2017-10-08T20:30:20.961Z,4.00
2017-10-08T20:32:48.827Z,3.85
2017-10-08T20:35:16.695Z,3.80
2017-10-08T20:37:44.562Z,3.78
2017-10-08T20:40:12.429Z,3.10
2017-10-08T20:42:40.296Z,3.25
2017-10-08T20:45:08.163Z,3.00
2017-10-08T20:47:36.031Z,4.43
2017-10-08T20:50:03.899Z,3.53
2017-10-08T20:52:31.764Z,4.10
2017-10-08T20:54:59.633Z,4.05
2017-10-08T20:57:27.502Z,4.57
2017-10-08T20:59:55.367Z,4.07
2017-10-08T21:02:23.239Z,5.25
2017-10-08T21:04:51.102Z,5.10
2017-10-08T21:07:18.969Z,5.30
2017-10-08T21:09:46.837Z,5.53
2017-10-08T21:12:14.703Z,4.60
2017-10-08T21:14:42.571Z,5.10
2017-10-08T21:17:10.438Z,4.85
2017-10-08T21:19:38.306Z,4.70
2017-10-08T21:22:06.173Z,4.50
2017-10-08T21:24:34.041Z,4.60
2017-10-08T21:27:01.907Z,4.45
2017-10-08T21:29:29.775Z,4.40
2017-10-08T21:31:57.744Z,3.85
2017-10-08T21:34:25.612Z,4.50
2017-10-08T21:36:55.312Z,4.18
2017-10-08T21:39:30.824Z,4.45
2017-10-08T21:41:58.941Z,5.15
2017-10-08T21:44:26.810Z,5.05
2017-10-08T21:46:54.677Z,4.75
2017-10-08T21:49:22.544Z,4.47
2017-10-08T21:51:50.411Z,4.00
2017-10-08T21:54:18.279Z,3.83
2017-10-08T21:56:46.146Z,3.97
2017-10-08T21:59:14.016Z,3.90
2017-10-08T22:01:42.699Z,4.05
2017-10-08T22:04:10.503Z,4.50
2017-10-08T22:06:39.152Z,4.30
2017-10-08T22:09:07.018Z,4.10
2017-10-08T22:11:34.885Z,4.37
2017-10-08T22:14:02.859Z,4.43
2017-10-08T22:16:30.723Z,4.43
2017-10-08T22:18:58.589Z,4.87
2017-10-08T22:21:26.457Z,4.50
2017-10-08T22:23:54.324Z,4.80
2017-10-08T22:26:22.191Z,5.05
2017-10-08T22:28:50.059Z,4.80
2017-10-08T22:31:17.926Z,4.70
2017-10-08T22:33:45.794Z,4.55
2017-10-08T22:36:13.662Z,4.40
2017-10-08T22:38:41.529Z,4.57
2017-10-08T22:41:09.396Z,5.43
2017-10-08T22:43:37.263Z,5.10
2017-10-08T22:46:05.130Z,6.55
2017-10-08T22:48:32.997Z,6.10
2017-10-08T22:51:00.865Z,6.70
2017-10-08T22:53:28.835Z,6.60
2017-10-08T22:55:56.705Z,6.70
2017-10-08T22:58:24.569Z,6.72
2017-10-08T23:00:52.437Z,6.95
2017-10-08T23:03:20.304Z,6.32
2017-10-08T23:05:48.171Z,7.35
2017-10-08T23:08:16.038Z,7.03
2017-10-08T23:10:43.907Z,8.07
2017-10-08T23:13:11.787Z,7.53
2017-10-08T23:15:39.641Z,6.72
2017-10-08T23:18:07.507Z,7.68
2017-10-08T23:20:35.374Z,7.85
2017-10-08T23:23:03.246Z,8.20
2017-10-08T23:25:31.114Z,7.15
2017-10-08T23:27:58.979Z,7.10
2017-10-08T23:30:26.848Z,7.30
2017-10-08T23:32:54.717Z,8.07
2017-10-08T23:35:22.583Z,7.97
2017-10-08T23:37:50.448Z,7.55
2017-10-08T23:40:18.314Z,7.37
2017-10-08T23:42:47.000Z,7.30
2017-10-08T23:45:14.868Z,6.90
2017-10-08T23:47:42.734Z,7.28
2017-10-08T23:50:10.603Z,7.72
2017-10-08T23:52:38.472Z,6.75
2017-10-08T23:55:06.337Z,8.98
2017-10-08T23:57:34.308Z,8.52
